Forum - METEO

POST X METEO

Amministratore
F.ranco52 04/10/2021 ore 08:35 Quota

(nessuno) Nowcasting Lunedì 4 Ottobre 2021

Buongiorno e Buona Giornata a tutti





Notizie Meteo dell'Italia da il Meteo .It


http://ilMeteo.It


la Situazione Italiana vista dal Sat









il Radar Europeo










Brindisi

METAR LIBR 040520Z 17003KT CAVOK 18/15 Q1021=

METAR di Brindisi del 4 alle 5,20z

Vento da 170° S SE 3 nodi (5,556 km) Visibilità 10000 m
Base delle Nubi e Visibilità OK
Temp 18°C Dew 15°C Ur 82% hPa 1021

Brindisi

TAF LIBR 040500Z 0406/0506 17006KT 9999 FEW020 BECMG 0409/0411 11010KT BECMG 0416/0418 19007KT=

le TAF di Brindisi delle 5z Previsioni dalle 6z alloe 6z del 5

Vento da 170° S SE 6 nodi (11,112 km) Visbilità 10000 m
Copertura 1-2 ottavi da 2000 piedi (609,6 m)
le Condizioni Diverranno fra le 9z e le 11z
Vento da 110° E SE 10 nodi (18,52 km)
le Condizioni Diverranno fra le 16z e le 18z
Vento da 190° S SW 7 nodi (12,962 km)


Gioia del Colle

METAR LIBV 040455Z 17005KT 7000 NSC 15/15 Q1020 RMK SKC VIS MIN 7000 WIND THR32 16009KT WIND THR14 VRB02KT WHT=

METAR di Gioia del Colle del 4 alle 4,55z

Vento da 170° S SE 5 nodi (9,26 km) Visibilità 7000 m
Nessuna Nube Significativa
Temp 15°C Dew 15°C Ur 91% hPa 1020
Nuvolosità a 3-4 ottavi
Visibilità Minima 7000 m

Gioia del Colle

TAF LIBV 040500Z 0406/0415 18005KT 7000 SKC BECMG 0406/0408 18015KT 9999 SCT030 TEMPO 0408/0412 BKN025=

le TAF fdi Gioia del Colle delle 5z Previsioni dalle 6z alle 15z

Vento da 180° S 5 nodi (9,26 km) Visibilità 7000 m
Copertura 3-4 ottavi
le Condizioni Diverranno fra le 6z e le 8z
Vento da 180° S 15 nodi (27,78 km) Visibilità 10000 m
Copertura 3-4 ottavi da 3000 piedi (914,4 m)
il Tempo Varierà dalle 8z alle 12z
Copertura 5-7 ottavi da 2500 piedi (762 m)
2742474
Buongiorno e Buona Giornata a tutti Notizie Meteo dell'Italia da il Meteo .It http://ilMeteo.It la Situazione Italiana vista dal...
Discussione
04/10/2021 08:35:44
none
  • mi piace
    iLikeIt
    PublicVote
    1

Vuoi partecipare anche tu a questa discussione?

Rispondi per lasciare il tuo messaggio in questa discussione